createdAt,value
2018-11-28T00:02:33.079Z,14.53
2018-11-28T00:12:37.428Z,15.73
2018-11-28T00:22:41.720Z,14.83
2018-11-28T00:32:45.946Z,13.47
2018-11-28T00:42:50.344Z,16.23
2018-11-28T00:52:54.482Z,13.37
2018-11-28T01:02:58.720Z,14.00
2018-11-28T01:13:02.808Z,18.50
2018-11-28T01:23:06.965Z,16.07
2018-11-28T01:33:11.138Z,15.73
2018-11-28T01:43:15.271Z,21.80
2018-11-28T01:53:19.439Z,24.57
2018-11-28T02:03:23.565Z,22.17
2018-11-28T02:13:27.646Z,19.33
2018-11-28T02:23:31.700Z,24.37
2018-11-28T02:33:35.814Z,24.37
2018-11-28T02:43:39.966Z,25.87
2018-11-28T02:53:44.104Z,23.83
2018-11-28T03:03:48.196Z,21.50
2018-11-28T03:13:52.359Z,21.80
2018-11-28T03:23:56.590Z,26.53
2018-11-28T03:34:00.747Z,25.00
2018-11-28T03:44:05.072Z,21.33
2018-11-28T03:54:09.260Z,18.70
2018-11-28T04:04:13.456Z,19.23
2018-11-28T04:14:17.576Z,18.60
2018-11-28T04:24:21.720Z,21.07
2018-11-28T04:34:25.834Z,22.87
2018-11-28T04:44:30.090Z,23.50
2018-11-28T04:54:34.275Z,17.90
2018-11-28T05:04:38.402Z,22.40
2018-11-28T05:14:42.528Z,22.23
2018-11-28T05:24:46.745Z,25.60
2018-11-28T05:34:50.905Z,21.47
2018-11-28T05:44:55.161Z,19.73
2018-11-28T05:54:59.371Z,19.20
2018-11-28T06:05:03.855Z,18.33
2018-11-28T06:15:10.062Z,21.60
2018-11-28T06:25:16.892Z,21.90
2018-11-28T06:35:20.401Z,18.70
2018-11-28T06:45:24.578Z,20.23
2018-11-28T06:55:28.755Z,16.60
2018-11-28T07:05:32.919Z,17.77
2018-11-28T07:15:37.049Z,15.80
2018-11-28T07:25:41.186Z,15.83
2018-11-28T07:35:46.437Z,13.83
2018-11-28T07:45:51.741Z,14.10
2018-11-28T07:55:55.950Z,13.57
2018-11-28T08:06:00.118Z,12.40
2018-11-28T08:16:04.372Z,12.97
2018-11-28T08:26:08.778Z,14.20
2018-11-28T08:36:13.089Z,15.07
2018-11-28T08:46:17.366Z,16.23
2018-11-28T08:56:21.963Z,16.17
2018-11-28T09:06:26.634Z,16.27
2018-11-28T09:16:31.333Z,13.10
2018-11-28T09:26:35.614Z,13.77
2018-11-28T09:36:39.787Z,11.70
2018-11-28T09:46:44.057Z,12.50
2018-11-28T09:56:48.214Z,10.77
2018-11-28T10:06:52.465Z,11.40
2018-11-28T10:16:57.131Z,11.20
2018-11-28T10:27:00.871Z,10.70
2018-11-28T10:37:05.209Z,9.73
2018-11-28T10:47:09.694Z,10.87
2018-11-28T10:57:13.794Z,10.20
2018-11-28T11:07:23.206Z,9.60
2018-11-28T11:17:27.472Z,9.70
2018-11-28T11:27:31.713Z,9.87
2018-11-28T11:37:36.231Z,8.33
2018-11-28T11:47:40.485Z,8.23
2018-11-28T11:57:44.849Z,5.70
2018-11-28T12:07:49.064Z,6.53
2018-11-28T12:17:53.250Z,6.50
2018-11-28T12:27:57.882Z,7.43
2018-11-28T12:38:02.472Z,6.07
2018-11-28T12:48:06.587Z,8.93
2018-11-28T12:58:14.131Z,10.23
2018-11-28T13:08:18.302Z,11.10
2018-11-28T13:18:22.568Z,10.13
2018-11-28T13:28:26.917Z,8.97
2018-11-28T13:38:31.147Z,9.37
2018-11-28T13:48:35.360Z,8.60
2018-11-28T13:58:39.484Z,8.80
2018-11-28T14:08:43.810Z,7.90
2018-11-28T14:18:48.182Z,7.07
2018-11-28T14:28:52.254Z,6.97
2018-11-28T14:38:56.665Z,7.77
2018-11-28T14:49:00.948Z,8.43
2018-11-28T14:59:05.866Z,11.37
2018-11-28T15:09:15.797Z,11.77
2018-11-28T15:19:20.146Z,12.17
2018-11-28T15:29:24.358Z,10.47
2018-11-28T15:39:28.606Z,12.00
2018-11-28T15:49:32.863Z,12.53
2018-11-28T15:59:36.990Z,14.40
2018-11-28T16:09:46.572Z,11.73
2018-11-28T16:19:50.705Z,10.57
2018-11-28T16:29:55.337Z,11.30
2018-11-28T16:39:59.597Z,11.17
2018-11-28T16:50:04.148Z,10.37
2018-11-28T17:00:11.887Z,10.73
2018-11-28T17:10:20.143Z,11.00
2018-11-28T17:20:25.358Z,10.37
2018-11-28T17:30:30.484Z,10.70
2018-11-28T17:40:34.735Z,10.20
2018-11-28T17:50:38.832Z,9.63
2018-11-28T18:00:42.987Z,9.93
2018-11-28T18:10:47.137Z,9.57
2018-11-28T18:20:51.325Z,9.67
2018-11-28T18:30:55.480Z,10.37
2018-11-28T18:40:59.861Z,9.10
2018-11-28T18:51:04.933Z,10.27
2018-11-28T19:01:09.031Z,9.63
2018-11-28T19:11:13.141Z,9.90
2018-11-28T19:21:17.342Z,9.30
2018-11-28T19:31:21.694Z,9.33
2018-11-28T19:41:26.783Z,9.47
2018-11-28T19:52:33.402Z,9.77
2018-11-28T20:02:37.595Z,9.80
2018-11-28T20:12:41.772Z,10.33
2018-11-28T20:22:46.132Z,10.87
2018-11-28T20:32:50.481Z,10.70
2018-11-28T20:42:59.581Z,11.43
2018-11-28T20:53:10.527Z,11.50
2018-11-28T21:03:14.719Z,11.17
2018-11-28T21:13:19.000Z,10.80
2018-11-28T21:23:23.156Z,15.83
2018-11-28T21:33:27.319Z,16.00
2018-11-28T21:43:31.657Z,20.00
2018-11-28T21:53:36.058Z,20.67
2018-11-28T22:03:40.294Z,21.13
2018-11-28T22:13:44.458Z,19.43
2018-11-28T22:23:48.654Z,18.93
2018-11-28T22:33:52.846Z,18.73
2018-11-28T22:43:56.976Z,17.07
2018-11-28T22:54:01.086Z,16.40
2018-11-28T23:04:05.754Z,15.13
2018-11-28T23:14:10.036Z,15.17
2018-11-28T23:24:14.130Z,14.33
2018-11-28T23:34:18.443Z,13.37
2018-11-28T23:44:22.562Z,13.63
2018-11-28T23:54:26.634Z,12.27
